Main page
METAR-TAF:

METAR-TAF

Airports :

Cambridge Airport

Cambridge, England

latitude: 52-12N, longitude: 000-11E, elevation: 15 m

Current weather observation

The report was made 34 minutes ago, at 17:50 UTC
Wind 14 kt from the South/Southwest
Temperature 11°C
Humidity 87%
Pressure 995 hPa
Visibility 10 km or more
Scattered clouds at a height of 800 ft
Broken clouds at a height of 2000 ft

METAR: EGSC 281750Z 21014KT 9999 SCT008 BKN020 11/09 Q0995

Time: 18:24 (18:24 UTC)

Forecast

The report was made 42 minutes ago, at 17:42 UTC
Forecast valid from 28 at 17 UTC to 28 at 19 UTC
Wind 12 kt from the South/Southwest
Visibility 10 km or more
Scattered clouds at a height of 800 ft
Broken clouds at a height of 2000 ft
Probability 40% :
Temporary
from 28 at 17 UTC to 28 at 19 UTC
Wind 15 kt from the South/Southwest with gusts up to 25 kt
Visibility: 4000 m
Broken clouds at a height of 800 ft
rain, drizzle

TAF: EGSC 281742Z 2817/2819 21012KT 9999 SCT008 BKN020 PROB40 TEMPO 2817/2819 21015G25KT 4000 RADZ BKN008

Weather observations and forecasts of more than 4000 airports (METAR and TAF reports).

The available stations are represented by yellow and red dots on the map.

Hover mouse over dot to see the name of the station.

Then click to see weather observations and forecasts.

To change the map : click on the green buttons with a black cross to zoom in, on the green button with a dash to zoom out, or on the green arrows for adjacent maps.


METAR-TAF: